createdAt,value
2018-02-16T00:00:48.851Z,4.50
2018-02-16T00:03:18.070Z,4.60
2018-02-16T00:05:46.499Z,4.60
2018-02-16T00:08:14.925Z,4.50
2018-02-16T00:10:43.342Z,4.60
2018-02-16T00:13:11.800Z,4.60
2018-02-16T00:15:40.276Z,4.60
2018-02-16T00:18:08.709Z,4.70
2018-02-16T00:20:37.154Z,4.70
2018-02-16T00:23:05.594Z,4.70
2018-02-16T00:25:34.786Z,4.70
2018-02-16T00:28:04.099Z,4.60
2018-02-16T00:30:33.334Z,4.70
2018-02-16T00:33:01.781Z,4.60
2018-02-16T00:35:31.022Z,4.60
2018-02-16T00:37:59.602Z,4.60
2018-02-16T00:40:28.042Z,4.60
2018-02-16T00:42:57.249Z,4.60
2018-02-16T00:45:25.823Z,4.50
2018-02-16T00:47:55.010Z,4.50
2018-02-16T00:50:23.437Z,4.40
2018-02-16T00:52:51.954Z,4.30
2018-02-16T00:55:20.498Z,4.30
2018-02-16T00:57:48.918Z,4.40
2018-02-16T01:00:17.374Z,4.30
2018-02-16T01:02:45.793Z,4.40
2018-02-16T01:05:14.234Z,4.40
2018-02-16T01:07:42.699Z,4.40
2018-02-16T01:10:11.154Z,4.30
2018-02-16T01:12:39.578Z,4.40
2018-02-16T01:15:08.023Z,4.40
2018-02-16T01:17:37.370Z,4.40
2018-02-16T01:20:05.822Z,4.40
2018-02-16T01:22:34.251Z,4.40
2018-02-16T01:25:02.750Z,4.40
2018-02-16T01:27:31.183Z,4.40
2018-02-16T01:29:59.618Z,4.20
2018-02-16T01:32:28.044Z,4.10
2018-02-16T01:34:56.486Z,4.10
2018-02-16T01:37:25.095Z,4.10
2018-02-16T01:39:53.974Z,4.20
2018-02-16T01:42:23.177Z,4.20
2018-02-16T01:44:52.383Z,4.20
2018-02-16T01:47:21.568Z,4.20
2018-02-16T01:50:01.211Z,4.20
2018-02-16T01:52:30.411Z,4.10
2018-02-16T01:54:58.838Z,4.10
2018-02-16T01:57:27.255Z,4.20
2018-02-16T01:59:55.697Z,4.10
2018-02-16T02:02:24.114Z,4.00
2018-02-16T02:04:53.486Z,4.00
2018-02-16T02:07:21.926Z,3.90
2018-02-16T02:09:51.127Z,3.80
2018-02-16T02:12:20.332Z,3.70
2018-02-16T02:14:49.520Z,3.70
2018-02-16T02:17:18.718Z,3.80
2018-02-16T02:19:47.141Z,3.80
2018-02-16T02:22:15.579Z,3.80
2018-02-16T02:24:44.009Z,3.80
2018-02-16T02:27:12.450Z,3.60
2018-02-16T02:29:41.655Z,3.60
2018-02-16T02:32:10.889Z,3.70
2018-02-16T02:34:39.327Z,3.80
2018-02-16T02:37:08.606Z,3.60
2018-02-16T02:39:37.030Z,3.60
2018-02-16T02:42:05.471Z,3.70
2018-02-16T02:44:33.912Z,3.70
2018-02-16T02:47:02.512Z,3.70
2018-02-16T02:49:31.048Z,3.80
2018-02-16T02:52:00.246Z,3.60
2018-02-16T02:54:29.435Z,3.60
2018-02-16T02:56:57.872Z,3.60
2018-02-16T02:59:26.302Z,3.50
2018-02-16T03:01:55.498Z,3.40
2018-02-16T03:04:24.699Z,3.40
2018-02-16T03:06:53.886Z,3.40
2018-02-16T03:09:22.316Z,3.30
2018-02-16T03:11:50.737Z,3.30
2018-02-16T03:14:20.110Z,3.40
2018-02-16T03:16:48.533Z,3.40
2018-02-16T03:19:16.978Z,3.40
2018-02-16T03:21:45.502Z,3.40
2018-02-16T03:24:13.914Z,3.50
2018-02-16T03:26:42.377Z,3.60
2018-02-16T03:29:11.557Z,3.70
2018-02-16T03:31:39.987Z,3.60
2018-02-16T03:34:08.414Z,3.70
2018-02-16T03:36:36.848Z,3.60
2018-02-16T03:39:04.597Z,3.60
2018-02-16T03:41:33.810Z,3.50
2018-02-16T03:44:02.236Z,3.60
2018-02-16T03:46:30.330Z,3.60
2018-02-16T03:48:58.758Z,3.70
2018-02-16T03:51:27.171Z,3.70
2018-02-16T03:53:55.322Z,3.70
2018-02-16T03:56:23.740Z,3.60
2018-02-16T03:58:52.278Z,3.60
2018-02-16T04:01:20.715Z,3.60
2018-02-16T04:03:49.757Z,3.60
2018-02-16T04:06:18.181Z,3.60
2018-02-16T04:08:46.601Z,3.50
2018-02-16T04:11:15.033Z,3.50
2018-02-16T04:13:43.454Z,3.50
2018-02-16T04:16:12.659Z,3.60
2018-02-16T04:18:41.842Z,3.50
2018-02-16T04:21:11.050Z,3.50
2018-02-16T04:23:40.234Z,3.40
2018-02-16T04:26:09.534Z,3.40
2018-02-16T04:28:38.066Z,3.40
2018-02-16T04:31:06.502Z,3.50
2018-02-16T04:33:35.703Z,3.40
2018-02-16T04:36:04.943Z,3.50
2018-02-16T04:38:33.457Z,3.40
2018-02-16T04:41:01.889Z,3.60
2018-02-16T04:43:30.413Z,3.30
2018-02-16T04:45:58.834Z,3.30
2018-02-16T04:48:28.058Z,3.30
2018-02-16T04:50:56.475Z,3.20
2018-02-16T04:53:24.898Z,3.30
2018-02-16T04:55:54.106Z,3.40
2018-02-16T04:58:23.304Z,3.30
2018-02-16T05:00:52.686Z,3.20
2018-02-16T05:03:21.133Z,3.20
2018-02-16T05:05:49.553Z,3.20
2018-02-16T05:08:18.864Z,3.20
2018-02-16T05:10:48.102Z,3.30
2018-02-16T05:13:16.894Z,3.30
2018-02-16T05:15:45.314Z,3.20
2018-02-16T05:18:13.742Z,3.20
2018-02-16T05:20:42.176Z,3.20
2018-02-16T05:23:10.608Z,3.30
2018-02-16T05:25:39.034Z,3.30
2018-02-16T05:28:07.459Z,3.30
2018-02-16T05:30:35.906Z,3.40
2018-02-16T05:33:04.332Z,3.40
2018-02-16T05:35:32.783Z,3.50
2018-02-16T05:38:01.998Z,3.30
2018-02-16T05:40:31.234Z,3.30
2018-02-16T05:42:59.662Z,3.30
2018-02-16T05:45:28.838Z,3.40
2018-02-16T05:47:57.393Z,3.30
2018-02-16T05:50:25.816Z,3.30
2018-02-16T05:52:54.366Z,3.20
2018-02-16T05:55:22.810Z,3.10
2018-02-16T05:57:51.290Z,3.10
2018-02-16T06:00:20.485Z,3.10
2018-02-16T06:02:49.706Z,3.10
2018-02-16T06:05:18.282Z,3.10
2018-02-16T06:07:47.502Z,3.10
2018-02-16T06:10:15.953Z,3.10
2018-02-16T06:12:44.954Z,3.00
2018-02-16T06:15:14.150Z,3.00
2018-02-16T06:17:43.341Z,3.00
2018-02-16T06:20:11.874Z,3.20
2018-02-16T06:22:40.322Z,3.10
2018-02-16T06:25:08.742Z,3.10
2018-02-16T06:27:37.181Z,2.90
2018-02-16T06:30:05.611Z,2.90
2018-02-16T06:32:34.066Z,3.10
2018-02-16T06:35:02.490Z,3.10
2018-02-16T06:37:30.987Z,3.10
2018-02-16T06:40:00.289Z,3.20
2018-02-16T06:42:28.766Z,3.10
2018-02-16T06:44:57.214Z,3.10
2018-02-16T06:47:25.635Z,3.10
2018-02-16T06:49:54.460Z,3.10
2018-02-16T06:52:22.879Z,3.10
2018-02-16T06:54:52.190Z,3.30
2018-02-16T06:57:22.110Z,3.30
2018-02-16T06:59:50.543Z,3.20
2018-02-16T07:02:18.974Z,3.10
2018-02-16T07:04:47.420Z,3.10
2018-02-16T07:07:15.838Z,3.20
2018-02-16T07:09:44.318Z,3.30
2018-02-16T07:12:12.522Z,3.30
2018-02-16T07:14:41.703Z,3.30
2018-02-16T07:17:11.151Z,3.40
2018-02-16T07:19:39.632Z,3.40
2018-02-16T07:22:08.078Z,3.40
2018-02-16T07:24:37.271Z,3.50
2018-02-16T07:27:05.713Z,3.40
2018-02-16T07:29:34.136Z,3.40
2018-02-16T07:32:02.586Z,3.40
2018-02-16T07:34:31.789Z,3.40
2018-02-16T07:36:59.902Z,3.40
2018-02-16T07:39:29.131Z,3.50
2018-02-16T07:41:57.569Z,3.40
2018-02-16T07:44:25.999Z,3.50
2018-02-16T07:46:54.448Z,3.50
2018-02-16T07:49:23.634Z,3.60
2018-02-16T07:51:52.841Z,3.60
2018-02-16T07:54:22.054Z,3.70
2018-02-16T07:56:51.275Z,3.70
2018-02-16T07:59:19.726Z,3.90
2018-02-16T08:01:48.935Z,3.90
2018-02-16T08:04:18.134Z,4.00
2018-02-16T08:06:47.313Z,4.20
2018-02-16T08:09:15.779Z,4.20
2018-02-16T08:11:44.191Z,4.20
2018-02-16T08:14:13.398Z,4.40
2018-02-16T08:16:41.842Z,4.40
2018-02-16T08:19:11.149Z,4.40
2018-02-16T08:21:39.570Z,4.40
2018-02-16T08:24:08.002Z,4.30
2018-02-16T08:26:36.441Z,4.30
2018-02-16T08:29:05.654Z,4.40
2018-02-16T08:31:34.078Z,4.40
2018-02-16T08:34:03.353Z,4.30
2018-02-16T08:36:31.779Z,4.30
2018-02-16T08:39:01.023Z,4.30
2018-02-16T08:41:29.449Z,4.30
2018-02-16T08:43:58.641Z,4.40
2018-02-16T08:46:27.132Z,4.20
2018-02-16T08:48:56.331Z,4.40
2018-02-16T08:51:25.530Z,4.60
2018-02-16T08:53:54.730Z,4.60
2018-02-16T08:56:23.930Z,4.60
2018-02-16T08:58:53.143Z,4.70
2018-02-16T09:01:21.569Z,4.70
2018-02-16T09:03:50.010Z,4.80
2018-02-16T09:06:18.429Z,4.80
2018-02-16T09:08:46.881Z,4.90
2018-02-16T09:11:15.330Z,5.00
2018-02-16T09:13:43.762Z,5.00
2018-02-16T09:16:12.205Z,5.00
2018-02-16T09:18:41.423Z,5.20
2018-02-16T09:21:09.849Z,5.10
2018-02-16T09:23:38.324Z,5.20
2018-02-16T09:26:06.832Z,5.30
2018-02-16T09:28:35.278Z,5.30
2018-02-16T09:31:03.745Z,5.50
2018-02-16T09:33:32.290Z,5.50
2018-02-16T09:36:04.191Z,5.60
2018-02-16T09:38:33.348Z,5.50
2018-02-16T09:41:02.566Z,5.50
2018-02-16T09:43:31.038Z,5.50
2018-02-16T09:46:00.223Z,5.60
2018-02-16T09:48:28.657Z,5.60
2018-02-16T09:50:57.067Z,5.40
2018-02-16T09:53:25.514Z,5.40
2018-02-16T09:55:53.971Z,5.40
2018-02-16T09:58:23.158Z,5.50
2018-02-16T10:00:52.518Z,5.50
2018-02-16T10:03:20.945Z,5.80
2018-02-16T10:05:50.161Z,5.70
2018-02-16T10:08:18.665Z,5.60
2018-02-16T10:10:47.095Z,5.50
2018-02-16T10:13:15.570Z,5.60
2018-02-16T10:15:44.024Z,5.50
2018-02-16T10:18:12.442Z,5.80
2018-02-16T10:20:40.888Z,5.70
2018-02-16T10:23:09.318Z,5.80
2018-02-16T10:25:38.515Z,5.70
2018-02-16T10:28:07.725Z,5.90
2018-02-16T10:30:36.915Z,5.70
2018-02-16T10:33:06.119Z,5.70
2018-02-16T10:35:35.319Z,5.80
2018-02-16T10:38:04.530Z,5.90
2018-02-16T10:40:33.806Z,6.10
2018-02-16T10:43:03.223Z,6.20
2018-02-16T10:45:32.452Z,6.20
2018-02-16T10:48:00.932Z,6.20
2018-02-16T10:50:29.735Z,6.30
2018-02-16T10:52:58.423Z,6.30
2018-02-16T10:55:26.874Z,6.20
2018-02-16T10:57:55.290Z,6.20
2018-02-16T11:00:29.140Z,6.00
2018-02-16T11:03:03.172Z,6.00
2018-02-16T11:05:38.142Z,6.10
2018-02-16T11:08:12.168Z,6.10
2018-02-16T11:10:40.672Z,6.30
2018-02-16T11:13:09.093Z,6.40
2018-02-16T11:15:37.534Z,6.30
2018-02-16T11:18:05.962Z,6.30
2018-02-16T11:20:34.419Z,6.30
2018-02-16T11:23:03.602Z,6.30
2018-02-16T11:25:32.064Z,6.30
2018-02-16T11:28:00.521Z,6.50
2018-02-16T11:30:28.942Z,6.80
2018-02-16T11:32:57.381Z,6.50
2018-02-16T11:35:25.822Z,6.60
2018-02-16T11:37:55.098Z,6.40
2018-02-16T11:40:23.518Z,6.30
2018-02-16T11:42:52.714Z,6.40
2018-02-16T11:45:21.924Z,6.30
2018-02-16T11:47:50.382Z,6.40
2018-02-16T11:50:19.573Z,6.60
2018-02-16T11:52:48.012Z,6.70
2018-02-16T11:55:16.449Z,6.60
2018-02-16T11:57:45.700Z,6.80
2018-02-16T12:00:14.155Z,6.60
2018-02-16T12:02:42.605Z,6.60
2018-02-16T12:05:11.810Z,6.50
2018-02-16T12:07:41.153Z,6.50
2018-02-16T12:10:09.594Z,6.40
2018-02-16T12:12:38.801Z,6.60
2018-02-16T12:15:07.812Z,6.50
2018-02-16T12:17:36.252Z,6.40
2018-02-16T12:20:04.670Z,6.40
2018-02-16T12:22:33.225Z,6.60
2018-02-16T12:25:01.643Z,6.70
2018-02-16T12:27:30.099Z,6.70
2018-02-16T12:29:59.298Z,6.70
2018-02-16T12:32:28.514Z,6.70
2018-02-16T12:34:57.904Z,6.60
2018-02-16T12:37:27.095Z,6.50
2018-02-16T12:39:56.119Z,6.50
2018-02-16T12:42:24.542Z,6.60
2018-02-16T12:44:53.072Z,6.50
2018-02-16T12:47:22.366Z,6.40
2018-02-16T12:49:51.597Z,6.20
2018-02-16T12:52:20.018Z,6.30
2018-02-16T12:54:48.599Z,6.30
2018-02-16T12:57:17.023Z,6.30
2018-02-16T12:59:46.228Z,6.20
2018-02-16T13:02:14.674Z,6.20
2018-02-16T13:04:43.321Z,6.30
2018-02-16T13:07:11.742Z,6.30
2018-02-16T13:09:40.190Z,6.20
2018-02-16T13:12:08.656Z,6.10
2018-02-16T13:14:37.257Z,6.10
2018-02-16T13:17:05.674Z,6.10
2018-02-16T13:19:34.094Z,6.30
2018-02-16T13:22:02.534Z,6.30
2018-02-16T13:24:31.004Z,6.40
2018-02-16T13:26:59.444Z,6.60
2018-02-16T13:29:27.878Z,6.60
2018-02-16T13:31:56.334Z,6.60
2018-02-16T13:34:24.780Z,6.60
2018-02-16T13:36:53.358Z,6.60
2018-02-16T13:39:21.802Z,6.60
2018-02-16T13:41:50.246Z,6.70
2018-02-16T13:44:19.085Z,6.70
2018-02-16T13:46:47.522Z,6.90
2018-02-16T13:49:15.950Z,6.90
2018-02-16T13:51:45.222Z,6.90
2018-02-16T13:54:13.658Z,6.80
2018-02-16T13:56:42.850Z,6.90
2018-02-16T13:59:12.051Z,6.90
2018-02-16T14:01:42.931Z,6.90
2018-02-16T14:04:11.066Z,6.90
2018-02-16T14:06:40.258Z,7.00
2018-02-16T14:09:09.442Z,6.90
2018-02-16T14:11:39.382Z,6.80
2018-02-16T14:14:08.602Z,6.90
2018-02-16T14:16:37.022Z,6.90
2018-02-16T14:19:05.116Z,6.90
2018-02-16T14:21:34.387Z,6.90
2018-02-16T14:24:02.870Z,6.90
2018-02-16T14:26:31.483Z,7.00
2018-02-16T14:29:00.702Z,6.90
2018-02-16T14:31:29.910Z,6.90
2018-02-16T14:33:59.106Z,6.80
2018-02-16T14:36:28.324Z,6.90
2018-02-16T14:38:56.819Z,6.90
2018-02-16T14:41:25.258Z,6.80
2018-02-16T14:43:54.701Z,6.70
2018-02-16T14:46:23.154Z,6.70
2018-02-16T14:48:52.359Z,6.80
2018-02-16T14:51:20.787Z,6.70
2018-02-16T14:53:49.258Z,6.70
2018-02-16T14:56:17.864Z,6.70
2018-02-16T14:58:46.310Z,6.80
2018-02-16T15:01:14.735Z,6.90
2018-02-16T15:03:43.942Z,6.90
2018-02-16T15:06:13.124Z,6.80
2018-02-16T15:08:41.573Z,6.80
2018-02-16T15:11:10.015Z,6.50
2018-02-16T15:13:39.228Z,6.40
2018-02-16T15:16:07.735Z,6.40
2018-02-16T15:18:36.222Z,6.40
2018-02-16T15:21:04.652Z,6.40
2018-02-16T15:23:34.580Z,6.60
2018-02-16T15:26:03.812Z,6.60
2018-02-16T15:28:32.236Z,6.60
2018-02-16T15:31:00.684Z,6.70
2018-02-16T15:33:29.129Z,6.40
2018-02-16T15:35:58.355Z,6.20
2018-02-16T15:38:26.771Z,6.10
2018-02-16T15:40:55.980Z,5.80
2018-02-16T15:43:24.402Z,5.80
2018-02-16T15:45:52.592Z,5.70
2018-02-16T15:48:21.801Z,5.70
2018-02-16T15:50:50.262Z,5.60
2018-02-16T15:53:19.453Z,5.60
2018-02-16T15:55:48.491Z,5.50
2018-02-16T15:58:17.281Z,5.60
2018-02-16T16:00:46.482Z,5.60
2018-02-16T16:03:15.326Z,5.50
2018-02-16T16:05:44.554Z,5.30
2018-02-16T16:08:13.436Z,5.10
2018-02-16T16:10:42.258Z,5.10
2018-02-16T16:13:10.713Z,4.90
2018-02-16T16:15:39.563Z,4.80
2018-02-16T16:18:08.394Z,4.80
2018-02-16T16:20:37.243Z,4.90
2018-02-16T16:23:05.674Z,4.60
2018-02-16T16:25:34.516Z,4.40
2018-02-16T16:28:03.379Z,4.30
2018-02-16T16:30:32.658Z,4.20
2018-02-16T16:33:01.495Z,4.20
2018-02-16T16:35:30.706Z,4.10
2018-02-16T16:37:59.562Z,4.10
2018-02-16T16:40:28.369Z,3.90
2018-02-16T16:42:57.562Z,3.90
2018-02-16T16:45:26.407Z,3.80
2018-02-16T16:47:55.275Z,3.80
2018-02-16T16:50:24.487Z,3.60
2018-02-16T16:52:53.322Z,3.50
2018-02-16T16:55:22.515Z,3.50
2018-02-16T16:57:51.403Z,3.60
2018-02-16T17:00:20.234Z,3.40
2018-02-16T17:02:49.465Z,3.30
2018-02-16T17:05:18.313Z,3.20
2018-02-16T17:07:47.513Z,3.00
2018-02-16T17:10:16.379Z,2.90
2018-02-16T17:12:45.214Z,2.80
2018-02-16T17:15:14.466Z,2.90
2018-02-16T17:17:43.302Z,2.80
2018-02-16T17:20:12.235Z,2.80
2018-02-16T17:22:41.475Z,3.00
2018-02-16T17:25:10.605Z,2.90
2018-02-16T17:27:39.680Z,2.90
2018-02-16T17:30:08.907Z,2.70
2018-02-16T17:32:38.112Z,2.80
2018-02-16T17:35:06.578Z,2.60
2018-02-16T17:37:35.566Z,2.40
2018-02-16T17:40:04.049Z,2.30
2018-02-16T17:42:33.567Z,2.40
2018-02-16T17:45:02.318Z,2.40
2018-02-16T17:47:31.705Z,2.40
2018-02-16T17:50:00.542Z,2.30
2018-02-16T17:52:29.242Z,2.20
2018-02-16T17:54:58.534Z,2.10
2018-02-16T17:57:27.355Z,2.10
2018-02-16T17:59:56.209Z,2.10
2018-02-16T18:02:25.346Z,2.30
2018-02-16T18:04:54.493Z,2.30
2018-02-16T18:07:23.454Z,2.20
2018-02-16T18:09:52.578Z,2.30
2018-02-16T18:12:21.430Z,-0.30
2018-02-16T18:14:50.259Z,2.20
2018-02-16T18:17:19.490Z,2.30
2018-02-16T18:19:48.187Z,2.20
2018-02-16T18:22:16.646Z,2.20
2018-02-16T18:24:45.477Z,2.30
2018-02-16T18:27:14.978Z,2.20
2018-02-16T18:29:44.482Z,2.10
2018-02-16T18:32:13.717Z,2.00
2018-02-16T18:34:42.446Z,2.00
2018-02-16T18:37:11.557Z,2.00
2018-02-16T18:39:40.522Z,2.00
2018-02-16T18:42:09.251Z,1.80
2018-02-16T18:44:38.738Z,1.90
2018-02-16T18:47:07.488Z,1.90
2018-02-16T18:49:36.600Z,1.90
2018-02-16T18:52:05.457Z,1.90
2018-02-16T18:54:34.168Z,1.90
2018-02-16T18:57:02.923Z,1.90
2018-02-16T18:59:31.650Z,1.90
2018-02-16T19:02:00.396Z,1.80
2018-02-16T19:04:29.551Z,1.80
2018-02-16T19:06:58.280Z,1.90
2018-02-16T19:09:27.766Z,1.70
2018-02-16T19:11:56.156Z,1.50
2018-02-16T19:14:24.879Z,1.40
2018-02-16T19:16:53.590Z,1.50
2018-02-16T19:19:22.328Z,1.40
2018-02-16T19:21:51.798Z,1.30
2018-02-16T19:24:20.687Z,1.20
2018-02-16T19:26:49.539Z,1.50
2018-02-16T19:29:18.255Z,1.60
2018-02-16T19:31:47.003Z,1.60
2018-02-16T19:34:16.515Z,1.50
2018-02-16T19:36:45.998Z,1.60
2018-02-16T19:39:14.715Z,1.30
2018-02-16T19:41:43.443Z,1.40
2018-02-16T19:44:12.557Z,1.40
2018-02-16T19:46:41.286Z,1.40
2018-02-16T19:49:10.827Z,1.30
2018-02-16T19:51:39.549Z,1.10
2018-02-16T19:54:08.314Z,1.00
2018-02-16T19:56:37.051Z,1.20
2018-02-16T19:59:05.773Z,1.20
2018-02-16T20:01:34.686Z,1.20
2018-02-16T20:04:03.407Z,1.20
2018-02-16T20:06:32.575Z,1.10
2018-02-16T20:09:01.283Z,1.10
2018-02-16T20:11:30.378Z,1.00
2018-02-16T20:13:59.502Z,0.80
2018-02-16T20:16:28.965Z,1.10
2018-02-16T20:18:57.712Z,1.00
2018-02-16T20:21:26.496Z,1.00
2018-02-16T20:23:55.387Z,1.00
2018-02-16T20:26:24.494Z,0.80
2018-02-16T20:28:53.642Z,0.70
2018-02-16T20:31:22.362Z,0.60
2018-02-16T20:33:51.499Z,0.60
2018-02-16T20:36:20.600Z,0.50
2018-02-16T20:38:49.304Z,0.80
2018-02-16T20:41:18.423Z,0.80
2018-02-16T20:43:47.546Z,0.80
2018-02-16T20:46:16.263Z,0.80
2018-02-16T20:48:44.972Z,0.40
2018-02-16T20:51:13.705Z,0.20
2018-02-16T20:53:43.187Z,0.10
2018-02-16T20:56:12.495Z,0.00
2018-02-16T20:58:41.978Z,-0.10
2018-02-16T21:01:11.558Z,-0.10
2018-02-16T21:03:40.254Z,0.00
2018-02-16T21:06:08.790Z,0.00
2018-02-16T21:08:38.087Z,-0.10
2018-02-16T21:11:07.214Z,-0.20
2018-02-16T21:13:36.318Z,-0.20
2018-02-16T21:16:06.418Z,-0.10
2018-02-16T21:18:35.524Z,-0.10
2018-02-16T21:21:04.645Z,-0.20
2018-02-16T21:23:33.383Z,0.00
2018-02-16T21:26:02.490Z,0.20
2018-02-16T21:28:32.093Z,0.20
2018-02-16T21:31:01.219Z,0.10
2018-02-16T21:33:30.374Z,0.10
2018-02-16T21:35:59.090Z,0.00
2018-02-16T21:38:27.653Z,-0.20
2018-02-16T21:40:56.424Z,-0.10
2018-02-16T21:43:25.170Z,0.10
2018-02-16T21:45:54.296Z,0.10
2018-02-16T21:48:23.446Z,0.10
2018-02-16T21:50:52.570Z,-0.10
2018-02-16T21:53:21.323Z,-0.20
2018-02-16T21:55:50.837Z,0.10
2018-02-16T21:58:20.338Z,0.00
2018-02-16T22:00:49.498Z,-0.20
2018-02-16T22:03:18.225Z,-0.20
2018-02-16T22:05:47.541Z,-0.10
2018-02-16T22:08:16.255Z,-0.10
2018-02-16T22:10:45.378Z,-0.30
2018-02-16T22:13:14.492Z,-0.50
2018-02-16T22:15:43.242Z,-0.60
2018-02-16T22:18:12.737Z,-0.50
2018-02-16T22:20:41.460Z,-0.40
2018-02-16T22:23:10.200Z,-0.40
2018-02-16T22:25:39.319Z,-0.30
2018-02-16T22:28:08.434Z,-0.40
2018-02-16T22:30:37.197Z,-0.50
2018-02-16T22:33:06.294Z,-0.70
2018-02-16T22:35:35.462Z,-0.70
2018-02-16T22:38:04.935Z,-0.70
2018-02-16T22:40:34.442Z,-0.70
2018-02-16T22:43:03.147Z,-0.50
2018-02-16T22:45:31.892Z,-0.60
2018-02-16T22:48:00.731Z,-0.50
2018-02-16T22:50:30.243Z,-0.40
2018-02-16T22:52:59.342Z,-0.40
2018-02-16T22:55:28.450Z,-0.40
2018-02-16T22:57:57.174Z,-0.50
2018-02-16T23:00:26.358Z,-0.50
2018-02-16T23:02:55.487Z,-0.60
2018-02-16T23:05:24.182Z,-0.80
2018-02-16T23:07:52.898Z,-0.80
2018-02-16T23:10:22.421Z,-0.90
2018-02-16T23:12:51.562Z,-0.80
2018-02-16T23:15:20.278Z,-0.80
2018-02-16T23:17:49.385Z,-0.80
2018-02-16T23:20:18.481Z,-0.80
2018-02-16T23:22:47.988Z,-0.80
2018-02-16T23:25:17.467Z,-0.70
2018-02-16T23:27:46.210Z,-0.70
2018-02-16T23:30:15.314Z,-0.70
2018-02-16T23:32:44.441Z,-0.50
2018-02-16T23:35:13.178Z,-0.50
2018-02-16T23:37:42.291Z,-0.40
2018-02-16T23:40:11.419Z,-0.40
2018-02-16T23:42:40.558Z,-0.50
2018-02-16T23:45:09.284Z,-0.70
2018-02-16T23:47:38.396Z,-0.90
2018-02-16T23:50:07.876Z,-0.90
2018-02-16T23:52:36.674Z,-0.90
2018-02-16T23:55:05.411Z,-0.60
2018-02-16T23:57:33.996Z,-0.60
